Terminal Aerodrome Forecast
Issued by NWS

Home | Current Version | Previous Version | Text Only | Print | Product List | Glossary On
Versions: 1 2 3 4 5 6 7 8 9 10 11 12 13 14 15 16 17 18 19 20 21
619
FTUS42 KMLB 282342
TAFSFB
TAF
KSFB 282342Z 2900/2924 07005KT P6SM FEW025 BKN060 BKN250
     FM291000 10003KT P6SM FEW015 SCT250
     FM291500 10007KT P6SM SCT030 SCT250
     FM291800 10010KT P6SM VCTS SCT035CB SCT250=

USA.gov is the U.S. government's official web portal to all federal, state and local government web resources and services.